sensor_id;sensor_type;location;lat;lon;timestamp;P1;durP1;ratioP1;P2;durP2;ratioP2
56523;SDS011;42422;47.540;18.712;2022-09-01T00:01:04;5.20;;;2.53;;
56523;SDS011;42422;47.540;18.712;2022-09-01T00:03:34;3.60;;;2.88;;
56523;SDS011;42422;47.540;18.712;2022-09-01T00:06:00;5.85;;;2.97;;
56523;SDS011;42422;47.540;18.712;2022-09-01T00:08:29;4.32;;;2.95;;
56523;SDS011;42422;47.540;18.712;2022-09-01T00:10:54;3.35;;;2.33;;
56523;SDS011;42422;47.540;18.712;2022-09-01T00:13:19;4.93;;;2.95;;
56523;SDS011;42422;47.540;18.712;2022-09-01T00:15:45;5.40;;;2.92;;
56523;SDS011;42422;47.540;18.712;2022-09-01T00:18:10;9.57;;;3.13;;
56523;SDS011;42422;47.540;18.712;2022-09-01T00:20:37;6.53;;;3.33;;
56523;SDS011;42422;47.540;18.712;2022-09-01T00:23:03;3.20;;;2.20;;
56523;SDS011;42422;47.540;18.712;2022-09-01T00:25:28;3.90;;;2.35;;
56523;SDS011;42422;47.540;18.712;2022-09-01T00:27:54;5.05;;;2.35;;
56523;SDS011;42422;47.540;18.712;2022-09-01T00:30:23;5.13;;;2.40;;
56523;SDS011;42422;47.540;18.712;2022-09-01T00:32:49;6.47;;;2.83;;
56523;SDS011;42422;47.540;18.712;2022-09-01T00:35:15;5.22;;;2.40;;
56523;SDS011;42422;47.540;18.712;2022-09-01T00:37:41;7.88;;;2.92;;
56523;SDS011;42422;47.540;18.712;2022-09-01T00:40:07;3.47;;;2.25;;
56523;SDS011;42422;47.540;18.712;2022-09-01T00:42:35;3.17;;;2.28;;
56523;SDS011;42422;47.540;18.712;2022-09-01T00:45:01;3.47;;;2.45;;
56523;SDS011;42422;47.540;18.712;2022-09-01T00:47:28;4.13;;;2.10;;
56523;SDS011;42422;47.540;18.712;2022-09-01T00:49:53;4.03;;;2.58;;
56523;SDS011;42422;47.540;18.712;2022-09-01T00:52:31;5.63;;;2.65;;
56523;SDS011;42422;47.540;18.712;2022-09-01T00:55:02;5.53;;;2.38;;
56523;SDS011;42422;47.540;18.712;2022-09-01T00:57:32;3.78;;;2.13;;
56523;SDS011;42422;47.540;18.712;2022-09-01T01:00:05;5.13;;;2.40;;
56523;SDS011;42422;47.540;18.712;2022-09-01T01:02:37;6.72;;;2.13;;
56523;SDS011;42422;47.540;18.712;2022-09-01T01:05:04;3.55;;;2.47;;
56523;SDS011;42422;47.540;18.712;2022-09-01T01:07:30;3.33;;;2.20;;
56523;SDS011;42422;47.540;18.712;2022-09-01T01:10:04;4.75;;;2.40;;
56523;SDS011;42422;47.540;18.712;2022-09-01T01:12:31;4.75;;;2.38;;
56523;SDS011;42422;47.540;18.712;2022-09-01T01:14:57;4.00;;;2.30;;
56523;SDS011;42422;47.540;18.712;2022-09-01T01:17:22;3.40;;;2.47;;
56523;SDS011;42422;47.540;18.712;2022-09-01T01:19:52;6.00;;;2.55;;
56523;SDS011;42422;47.540;18.712;2022-09-01T01:25:51;4.15;;;2.25;;
56523;SDS011;42422;47.540;18.712;2022-09-01T01:28:19;3.45;;;2.00;;
56523;SDS011;42422;47.540;18.712;2022-09-01T01:30:59;3.92;;;1.90;;
56523;SDS011;42422;47.540;18.712;2022-09-01T01:33:31;6.78;;;2.20;;
56523;SDS011;42422;47.540;18.712;2022-09-01T01:36:05;4.13;;;2.17;;
56523;SDS011;42422;47.540;18.712;2022-09-01T01:38:36;3.47;;;1.80;;
56523;SDS011;42422;47.540;18.712;2022-09-01T01:41:07;4.22;;;2.08;;
56523;SDS011;42422;47.540;18.712;2022-09-01T01:43:33;4.13;;;2.22;;
56523;SDS011;42422;47.540;18.712;2022-09-01T01:45:59;4.68;;;2.15;;
56523;SDS011;42422;47.540;18.712;2022-09-01T01:48:26;4.55;;;1.88;;
56523;SDS011;42422;47.540;18.712;2022-09-01T01:50:53;4.82;;;2.00;;
56523;SDS011;42422;47.540;18.712;2022-09-01T01:53:19;5.72;;;1.77;;
56523;SDS011;42422;47.540;18.712;2022-09-01T01:55:45;4.97;;;2.60;;
56523;SDS011;42422;47.540;18.712;2022-09-01T01:58:17;3.33;;;2.20;;
56523;SDS011;42422;47.540;18.712;2022-09-01T02:01:11;5.82;;;2.05;;
56523;SDS011;42422;47.540;18.712;2022-09-01T02:04:36;2.70;;;1.80;;
56523;SDS011;42422;47.540;18.712;2022-09-01T02:07:04;2.75;;;1.40;;
56523;SDS011;42422;47.540;18.712;2022-09-01T02:09:30;3.92;;;1.85;;
56523;SDS011;42422;47.540;18.712;2022-09-01T02:11:55;2.40;;;1.75;;
56523;SDS011;42422;47.540;18.712;2022-09-01T02:14:22;3.95;;;1.83;;
56523;SDS011;42422;47.540;18.712;2022-09-01T02:16:48;3.08;;;1.27;;
56523;SDS011;42422;47.540;18.712;2022-09-01T02:19:13;1.98;;;1.48;;
56523;SDS011;42422;47.540;18.712;2022-09-01T02:21:43;1.98;;;1.38;;
56523;SDS011;42422;47.540;18.712;2022-09-01T02:24:13;3.20;;;1.40;;
56523;SDS011;42422;47.540;18.712;2022-09-01T02:26:40;3.00;;;1.58;;
56523;SDS011;42422;47.540;18.712;2022-09-01T02:29:10;2.70;;;1.70;;
56523;SDS011;42422;47.540;18.712;2022-09-01T02:31:42;2.63;;;1.38;;
56523;SDS011;42422;47.540;18.712;2022-09-01T02:34:08;3.55;;;1.45;;
56523;SDS011;42422;47.540;18.712;2022-09-01T02:36:35;2.78;;;1.20;;
56523;SDS011;42422;47.540;18.712;2022-09-01T02:39:06;2.45;;;1.60;;
56523;SDS011;42422;47.540;18.712;2022-09-01T02:41:32;2.95;;;1.33;;
56523;SDS011;42422;47.540;18.712;2022-09-01T02:43:58;4.95;;;1.38;;
56523;SDS011;42422;47.540;18.712;2022-09-01T02:46:26;1.60;;;1.00;;
56523;SDS011;42422;47.540;18.712;2022-09-01T02:48:52;2.15;;;1.05;;
56523;SDS011;42422;47.540;18.712;2022-09-01T02:51:20;3.35;;;1.27;;
56523;SDS011;42422;47.540;18.712;2022-09-01T02:53:47;1.83;;;1.13;;
56523;SDS011;42422;47.540;18.712;2022-09-01T02:56:17;1.45;;;0.98;;
56523;SDS011;42422;47.540;18.712;2022-09-01T02:58:45;2.55;;;1.20;;
56523;SDS011;42422;47.540;18.712;2022-09-01T03:01:12;2.63;;;1.20;;
56523;SDS011;42422;47.540;18.712;2022-09-01T03:03:44;3.75;;;1.42;;
56523;SDS011;42422;47.540;18.712;2022-09-01T03:06:09;5.90;;;1.42;;
56523;SDS011;42422;47.540;18.712;2022-09-01T03:08:36;2.03;;;1.40;;
56523;SDS011;42422;47.540;18.712;2022-09-01T03:11:02;2.53;;;1.13;;
56523;SDS011;42422;47.540;18.712;2022-09-01T03:13:32;3.63;;;1.30;;
56523;SDS011;42422;47.540;18.712;2022-09-01T03:15:57;2.17;;;1.40;;
56523;SDS011;42422;47.540;18.712;2022-09-01T03:18:23;4.55;;;1.50;;
56523;SDS011;42422;47.540;18.712;2022-09-01T03:20:48;2.80;;;1.23;;
56523;SDS011;42422;47.540;18.712;2022-09-01T03:23:15;1.95;;;1.38;;
56523;SDS011;42422;47.540;18.712;2022-09-01T03:25:42;4.05;;;1.23;;
56523;SDS011;42422;47.540;18.712;2022-09-01T03:28:09;3.65;;;1.30;;
56523;SDS011;42422;47.540;18.712;2022-09-01T03:30:37;3.25;;;1.38;;
56523;SDS011;42422;47.540;18.712;2022-09-01T03:33:06;2.63;;;1.10;;
56523;SDS011;42422;47.540;18.712;2022-09-01T03:35:32;3.88;;;1.52;;
56523;SDS011;42422;47.540;18.712;2022-09-01T03:37:58;2.70;;;1.27;;
56523;SDS011;42422;47.540;18.712;2022-09-01T03:40:31;2.75;;;1.63;;
56523;SDS011;42422;47.540;18.712;2022-09-01T03:43:00;2.87;;;1.20;;
56523;SDS011;42422;47.540;18.712;2022-09-01T03:45:27;5.75;;;1.50;;
56523;SDS011;42422;47.540;18.712;2022-09-01T03:47:53;2.33;;;1.13;;
56523;SDS011;42422;47.540;18.712;2022-09-01T03:50:21;5.07;;;1.35;;
56523;SDS011;42422;47.540;18.712;2022-09-01T03:52:55;2.00;;;1.10;;
56523;SDS011;42422;47.540;18.712;2022-09-01T03:55:24;2.17;;;1.20;;
56523;SDS011;42422;47.540;18.712;2022-09-01T03:57:52;1.98;;;1.20;;
56523;SDS011;42422;47.540;18.712;2022-09-01T04:00:21;4.97;;;1.73;;
56523;SDS011;42422;47.540;18.712;2022-09-01T04:02:51;3.65;;;1.27;;
56523;SDS011;42422;47.540;18.712;2022-09-01T04:05:19;1.50;;;0.88;;
56523;SDS011;42422;47.540;18.712;2022-09-01T04:07:48;4.45;;;1.40;;
56523;SDS011;42422;47.540;18.712;2022-09-01T04:10:15;1.95;;;1.35;;
56523;SDS011;42422;47.540;18.712;2022-09-01T04:12:41;2.33;;;1.30;;
56523;SDS011;42422;47.540;18.712;2022-09-01T04:15:07;2.08;;;1.25;;
56523;SDS011;42422;47.540;18.712;2022-09-01T04:17:34;1.88;;;1.00;;
56523;SDS011;42422;47.540;18.712;2022-09-01T04:20:18;2.20;;;1.15;;
56523;SDS011;42422;47.540;18.712;2022-09-01T04:22:45;2.17;;;1.33;;
56523;SDS011;42422;47.540;18.712;2022-09-01T04:25:12;2.58;;;1.13;;
56523;SDS011;42422;47.540;18.712;2022-09-01T04:27:38;2.17;;;1.30;;
56523;SDS011;42422;47.540;18.712;2022-09-01T04:30:05;2.03;;;1.02;;
56523;SDS011;42422;47.540;18.712;2022-09-01T04:32:34;1.98;;;1.20;;
56523;SDS011;42422;47.540;18.712;2022-09-01T04:35:04;2.95;;;1.40;;
56523;SDS011;42422;47.540;18.712;2022-09-01T04:37:31;2.08;;;1.13;;
56523;SDS011;42422;47.540;18.712;2022-09-01T04:40:00;1.95;;;1.00;;
56523;SDS011;42422;47.540;18.712;2022-09-01T04:42:26;1.48;;;1.10;;
56523;SDS011;42422;47.540;18.712;2022-09-01T04:44:53;3.35;;;1.10;;
56523;SDS011;42422;47.540;18.712;2022-09-01T04:47:21;2.65;;;0.90;;
56523;SDS011;42422;47.540;18.712;2022-09-01T04:49:54;1.60;;;0.98;;
56523;SDS011;42422;47.540;18.712;2022-09-01T04:52:23;3.03;;;1.38;;
56523;SDS011;42422;47.540;18.712;2022-09-01T04:54:48;4.57;;;1.38;;
56523;SDS011;42422;47.540;18.712;2022-09-01T04:57:13;2.88;;;1.13;;
56523;SDS011;42422;47.540;18.712;2022-09-01T04:59:40;1.60;;;1.08;;
56523;SDS011;42422;47.540;18.712;2022-09-01T05:02:06;4.57;;;1.40;;
56523;SDS011;42422;47.540;18.712;2022-09-01T05:04:33;4.32;;;1.20;;
56523;SDS011;42422;47.540;18.712;2022-09-01T05:06:59;1.00;;;0.88;;
56523;SDS011;42422;47.540;18.712;2022-09-01T05:09:26;3.97;;;0.98;;
56523;SDS011;42422;47.540;18.712;2022-09-01T05:11:54;1.70;;;1.00;;
56523;SDS011;42422;47.540;18.712;2022-09-01T05:14:19;1.40;;;0.90;;
56523;SDS011;42422;47.540;18.712;2022-09-01T05:16:46;1.70;;;0.98;;
56523;SDS011;42422;47.540;18.712;2022-09-01T05:19:12;2.50;;;1.05;;
56523;SDS011;42422;47.540;18.712;2022-09-01T05:21:42;2.47;;;1.60;;
56523;SDS011;42422;47.540;18.712;2022-09-01T05:24:10;1.13;;;0.90;;
56523;SDS011;42422;47.540;18.712;2022-09-01T05:26:36;3.08;;;0.95;;
56523;SDS011;42422;47.540;18.712;2022-09-01T05:29:05;2.53;;;0.95;;
56523;SDS011;42422;47.540;18.712;2022-09-01T05:31:34;2.80;;;1.15;;
56523;SDS011;42422;47.540;18.712;2022-09-01T05:34:02;2.05;;;1.38;;
56523;SDS011;42422;47.540;18.712;2022-09-01T05:36:28;1.70;;;1.00;;
56523;SDS011;42422;47.540;18.712;2022-09-01T05:38:57;1.52;;;1.05;;
56523;SDS011;42422;47.540;18.712;2022-09-01T05:41:23;1.40;;;1.00;;
56523;SDS011;42422;47.540;18.712;2022-09-01T05:43:49;1.75;;;1.10;;
56523;SDS011;42422;47.540;18.712;2022-09-01T05:46:21;2.75;;;1.00;;
56523;SDS011;42422;47.540;18.712;2022-09-01T05:48:49;2.75;;;1.00;;
56523;SDS011;42422;47.540;18.712;2022-09-01T05:51:16;2.83;;;1.20;;
56523;SDS011;42422;47.540;18.712;2022-09-01T05:53:44;1.80;;;1.10;;
56523;SDS011;42422;47.540;18.712;2022-09-01T05:56:11;1.88;;;1.00;;
56523;SDS011;42422;47.540;18.712;2022-09-01T05:58:37;3.15;;;0.90;;
56523;SDS011;42422;47.540;18.712;2022-09-01T06:01:04;4.00;;;1.00;;
56523;SDS011;42422;47.540;18.712;2022-09-01T06:03:30;1.95;;;1.10;;
56523;SDS011;42422;47.540;18.712;2022-09-01T06:06:00;1.65;;;1.08;;
56523;SDS011;42422;47.540;18.712;2022-09-01T06:08:27;3.38;;;1.20;;
56523;SDS011;42422;47.540;18.712;2022-09-01T06:10:53;1.27;;;1.00;;
56523;SDS011;42422;47.540;18.712;2022-09-01T06:13:18;1.52;;;0.90;;
56523;SDS011;42422;47.540;18.712;2022-09-01T06:15:46;3.15;;;1.23;;
56523;SDS011;42422;47.540;18.712;2022-09-01T06:18:13;2.22;;;1.20;;
56523;SDS011;42422;47.540;18.712;2022-09-01T06:20:39;1.50;;;0.85;;
56523;SDS011;42422;47.540;18.712;2022-09-01T06:23:06;1.90;;;0.93;;
56523;SDS011;42422;47.540;18.712;2022-09-01T06:25:35;1.75;;;1.05;;
56523;SDS011;42422;47.540;18.712;2022-09-01T06:28:01;1.55;;;1.00;;
56523;SDS011;42422;47.540;18.712;2022-09-01T06:30:28;3.42;;;1.02;;
56523;SDS011;42422;47.540;18.712;2022-09-01T06:32:54;1.73;;;1.00;;
56523;SDS011;42422;47.540;18.712;2022-09-01T06:35:20;2.00;;;1.08;;
56523;SDS011;42422;47.540;18.712;2022-09-01T06:37:46;1.45;;;0.85;;
56523;SDS011;42422;47.540;18.712;2022-09-01T06:40:13;1.42;;;0.82;;
56523;SDS011;42422;47.540;18.712;2022-09-01T06:42:45;1.15;;;0.63;;
56523;SDS011;42422;47.540;18.712;2022-09-01T06:45:12;2.10;;;0.95;;
56523;SDS011;42422;47.540;18.712;2022-09-01T06:47:39;3.63;;;0.88;;
56523;SDS011;42422;47.540;18.712;2022-09-01T06:50:11;2.35;;;0.80;;
56523;SDS011;42422;47.540;18.712;2022-09-01T06:52:42;2.00;;;0.88;;
56523;SDS011;42422;47.540;18.712;2022-09-01T06:55:09;1.75;;;1.05;;
56523;SDS011;42422;47.540;18.712;2022-09-01T06:57:35;2.05;;;0.90;;
56523;SDS011;42422;47.540;18.712;2022-09-01T07:00:02;1.85;;;1.00;;
56523;SDS011;42422;47.540;18.712;2022-09-01T07:02:31;1.63;;;1.00;;
56523;SDS011;42422;47.540;18.712;2022-09-01T07:04:57;1.20;;;0.93;;
56523;SDS011;42422;47.540;18.712;2022-09-01T07:07:23;1.30;;;0.80;;
56523;SDS011;42422;47.540;18.712;2022-09-01T07:09:48;3.40;;;1.60;;
56523;SDS011;42422;47.540;18.712;2022-09-01T07:12:14;2.40;;;1.25;;
56523;SDS011;42422;47.540;18.712;2022-09-01T07:14:43;1.45;;;0.70;;
56523;SDS011;42422;47.540;18.712;2022-09-01T07:17:11;1.40;;;0.90;;
56523;SDS011;42422;47.540;18.712;2022-09-01T07:19:39;2.28;;;1.27;;
56523;SDS011;42422;47.540;18.712;2022-09-01T07:22:05;1.15;;;0.80;;
56523;SDS011;42422;47.540;18.712;2022-09-01T07:24:30;1.73;;;1.05;;
56523;SDS011;42422;47.540;18.712;2022-09-01T07:26:55;1.30;;;1.00;;
56523;SDS011;42422;47.540;18.712;2022-09-01T07:29:21;1.75;;;0.95;;
56523;SDS011;42422;47.540;18.712;2022-09-01T07:31:47;3.15;;;0.93;;
56523;SDS011;42422;47.540;18.712;2022-09-01T07:34:13;4.22;;;1.13;;
56523;SDS011;42422;47.540;18.712;2022-09-01T07:36:41;1.70;;;0.95;;
56523;SDS011;42422;47.540;18.712;2022-09-01T07:39:07;2.38;;;0.98;;
56523;SDS011;42422;47.540;18.712;2022-09-01T07:41:34;2.78;;;1.05;;
56523;SDS011;42422;47.540;18.712;2022-09-01T07:44:00;2.80;;;0.90;;
56523;SDS011;42422;47.540;18.712;2022-09-01T07:46:27;1.95;;;0.80;;
56523;SDS011;42422;47.540;18.712;2022-09-01T07:48:55;1.60;;;1.00;;
56523;SDS011;42422;47.540;18.712;2022-09-01T07:51:21;2.38;;;1.10;;
56523;SDS011;42422;47.540;18.712;2022-09-01T07:53:48;1.83;;;0.77;;
56523;SDS011;42422;47.540;18.712;2022-09-01T07:56:15;1.88;;;1.00;;
56523;SDS011;42422;47.540;18.712;2022-09-01T07:58:43;1.48;;;1.00;;
56523;SDS011;42422;47.540;18.712;2022-09-01T08:01:13;2.50;;;1.25;;
56523;SDS011;42422;47.540;18.712;2022-09-01T08:03:42;1.85;;;1.05;;
56523;SDS011;42422;47.540;18.712;2022-09-01T08:06:10;3.47;;;1.30;;
56523;SDS011;42422;47.540;18.712;2022-09-01T08:08:37;1.42;;;0.93;;
56523;SDS011;42422;47.540;18.712;2022-09-01T08:11:06;2.97;;;1.23;;
56523;SDS011;42422;47.540;18.712;2022-09-01T08:13:32;3.30;;;1.60;;
56523;SDS011;42422;47.540;18.712;2022-09-01T08:15:58;3.58;;;1.08;;
56523;SDS011;42422;47.540;18.712;2022-09-01T08:18:28;2.35;;;1.50;;
56523;SDS011;42422;47.540;18.712;2022-09-01T08:20:53;3.08;;;1.80;;
56523;SDS011;42422;47.540;18.712;2022-09-01T08:23:19;2.58;;;1.50;;
56523;SDS011;42422;47.540;18.712;2022-09-01T08:25:45;2.65;;;1.55;;
56523;SDS011;42422;47.540;18.712;2022-09-01T08:28:11;2.65;;;1.55;;
56523;SDS011;42422;47.540;18.712;2022-09-01T08:30:39;3.08;;;1.35;;
56523;SDS011;42422;47.540;18.712;2022-09-01T08:33:05;4.72;;;1.77;;
56523;SDS011;42422;47.540;18.712;2022-09-01T08:35:31;2.38;;;1.20;;
56523;SDS011;42422;47.540;18.712;2022-09-01T08:37:57;1.73;;;1.20;;
56523;SDS011;42422;47.540;18.712;2022-09-01T08:40:23;2.17;;;1.02;;
56523;SDS011;42422;47.540;18.712;2022-09-01T08:42:52;2.20;;;1.30;;
56523;SDS011;42422;47.540;18.712;2022-09-01T08:45:55;2.50;;;1.40;;
56523;SDS011;42422;47.540;18.712;2022-09-01T08:48:26;3.25;;;1.40;;
56523;SDS011;42422;47.540;18.712;2022-09-01T08:53:57;3.30;;;1.50;;
56523;SDS011;42422;47.540;18.712;2022-09-01T08:56:22;2.50;;;1.30;;
56523;SDS011;42422;47.540;18.712;2022-09-01T08:58:49;2.22;;;1.40;;
56523;SDS011;42422;47.540;18.712;2022-09-01T09:01:37;2.08;;;1.20;;
56523;SDS011;42422;47.540;18.712;2022-09-01T09:06:35;1.98;;;1.20;;
56523;SDS011;42422;47.540;18.712;2022-09-01T09:09:06;3.65;;;1.20;;
56523;SDS011;42422;47.540;18.712;2022-09-01T09:17:24;1.52;;;1.08;;
56523;SDS011;42422;47.540;18.712;2022-09-01T09:19:54;2.55;;;1.10;;
56523;SDS011;42422;47.540;18.712;2022-09-01T09:22:19;11.05;;;1.60;;
56523;SDS011;42422;47.540;18.712;2022-09-01T09:27:24;5.38;;;1.15;;
56523;SDS011;42422;47.540;18.712;2022-09-01T09:29:58;1.42;;;1.10;;
56523;SDS011;42422;47.540;18.712;2022-09-01T09:35:26;1.33;;;0.88;;
56523;SDS011;42422;47.540;18.712;2022-09-01T09:38:14;1.85;;;1.10;;
56523;SDS011;42422;47.540;18.712;2022-09-01T09:43:24;1.73;;;0.90;;
56523;SDS011;42422;47.540;18.712;2022-09-01T09:45:50;3.15;;;0.93;;
56523;SDS011;42422;47.540;18.712;2022-09-01T09:48:47;1.23;;;0.90;;
56523;SDS011;42422;47.540;18.712;2022-09-01T09:51:16;3.65;;;1.05;;
56523;SDS011;42422;47.540;18.712;2022-09-01T09:53:45;1.80;;;1.05;;
56523;SDS011;42422;47.540;18.712;2022-09-01T09:58:39;2.15;;;0.90;;
56523;SDS011;42422;47.540;18.712;2022-09-01T10:03:50;1.83;;;1.08;;
56523;SDS011;42422;47.540;18.712;2022-09-01T10:06:31;2.40;;;0.68;;
56523;SDS011;42422;47.540;18.712;2022-09-01T10:11:50;1.42;;;0.75;;
56523;SDS011;42422;47.540;18.712;2022-09-01T10:14:18;4.20;;;0.80;;
56523;SDS011;42422;47.540;18.712;2022-09-01T10:16:46;3.22;;;0.80;;
56523;SDS011;42422;47.540;18.712;2022-09-01T10:19:12;1.70;;;0.93;;
56523;SDS011;42422;47.540;18.712;2022-09-01T10:21:39;1.63;;;0.75;;
56523;SDS011;42422;47.540;18.712;2022-09-01T10:24:22;2.47;;;0.98;;
56523;SDS011;42422;47.540;18.712;2022-09-01T10:27:03;2.95;;;0.80;;
56523;SDS011;42422;47.540;18.712;2022-09-01T10:29:42;2.00;;;0.93;;
56523;SDS011;42422;47.540;18.712;2022-09-01T10:32:12;2.42;;;0.90;;
56523;SDS011;42422;47.540;18.712;2022-09-01T10:34:42;0.93;;;0.70;;
56523;SDS011;42422;47.540;18.712;2022-09-01T10:37:08;3.00;;;0.80;;
56523;SDS011;42422;47.540;18.712;2022-09-01T10:39:34;1.15;;;0.70;;
56523;SDS011;42422;47.540;18.712;2022-09-01T10:42:40;1.15;;;0.90;;
56523;SDS011;42422;47.540;18.712;2022-09-01T10:45:15;1.38;;;0.80;;
56523;SDS011;42422;47.540;18.712;2022-09-01T10:47:42;3.28;;;1.10;;
56523;SDS011;42422;47.540;18.712;2022-09-01T10:50:26;1.45;;;0.70;;
56523;SDS011;42422;47.540;18.712;2022-09-01T10:53:05;1.70;;;0.80;;
56523;SDS011;42422;47.540;18.712;2022-09-01T10:55:36;1.45;;;0.70;;
56523;SDS011;42422;47.540;18.712;2022-09-01T11:05:59;3.40;;;0.93;;
56523;SDS011;42422;47.540;18.712;2022-09-01T11:13:41;1.30;;;0.75;;
56523;SDS011;42422;47.540;18.712;2022-09-01T11:19:34;1.45;;;0.88;;
56523;SDS011;42422;47.540;18.712;2022-09-01T11:25:08;1.30;;;0.70;;
56523;SDS011;42422;47.540;18.712;2022-09-01T11:33:49;1.33;;;0.77;;
56523;SDS011;42422;47.540;18.712;2022-09-01T11:36:00;2.63;;;0.70;;
56523;SDS011;42422;47.540;18.712;2022-09-01T11:38:33;1.77;;;0.85;;
56523;SDS011;42422;47.540;18.712;2022-09-01T11:41:08;1.10;;;0.73;;
56523;SDS011;42422;47.540;18.712;2022-09-01T11:43:48;1.85;;;0.80;;
56523;SDS011;42422;47.540;18.712;2022-09-01T11:46:17;0.80;;;0.60;;
56523;SDS011;42422;47.540;18.712;2022-09-01T11:48:52;4.05;;;1.10;;
56523;SDS011;42422;47.540;18.712;2022-09-01T11:51:18;2.05;;;1.30;;
56523;SDS011;42422;47.540;18.712;2022-09-01T11:53:45;2.45;;;1.08;;
56523;SDS011;42422;47.540;18.712;2022-09-01T11:56:15;2.13;;;1.20;;
56523;SDS011;42422;47.540;18.712;2022-09-01T11:58:47;1.88;;;1.00;;
56523;SDS011;42422;47.540;18.712;2022-09-01T12:01:17;1.40;;;0.75;;
56523;SDS011;42422;47.540;18.712;2022-09-01T12:03:48;2.73;;;1.00;;
56523;SDS011;42422;47.540;18.712;2022-09-01T12:06:22;1.25;;;0.80;;
56523;SDS011;42422;47.540;18.712;2022-09-01T12:08:51;1.88;;;0.93;;
56523;SDS011;42422;47.540;18.712;2022-09-01T12:11:23;2.30;;;0.77;;
56523;SDS011;42422;47.540;18.712;2022-09-01T12:13:57;1.60;;;0.70;;
56523;SDS011;42422;47.540;18.712;2022-09-01T12:16:28;2.35;;;0.70;;
56523;SDS011;42422;47.540;18.712;2022-09-01T12:18:55;0.82;;;0.70;;
56523;SDS011;42422;47.540;18.712;2022-09-01T12:21:32;1.25;;;0.80;;
56523;SDS011;42422;47.540;18.712;2022-09-01T12:24:09;2.15;;;1.10;;
56523;SDS011;42422;47.540;18.712;2022-09-01T12:26:39;1.80;;;1.00;;
56523;SDS011;42422;47.540;18.712;2022-09-01T12:29:04;1.50;;;0.88;;
56523;SDS011;42422;47.540;18.712;2022-09-01T12:31:31;2.13;;;0.95;;
56523;SDS011;42422;47.540;18.712;2022-09-01T12:34:00;3.22;;;0.88;;
56523;SDS011;42422;47.540;18.712;2022-09-01T12:36:32;1.13;;;0.60;;
56523;SDS011;42422;47.540;18.712;2022-09-01T12:41:59;1.67;;;0.88;;
56523;SDS011;42422;47.540;18.712;2022-09-01T12:44:56;1.42;;;0.88;;
56523;SDS011;42422;47.540;18.712;2022-09-01T12:49:57;1.08;;;0.73;;
56523;SDS011;42422;47.540;18.712;2022-09-01T12:52:31;1.38;;;0.85;;
56523;SDS011;42422;47.540;18.712;2022-09-01T12:57:28;2.25;;;1.05;;
56523;SDS011;42422;47.540;18.712;2022-09-01T13:00:32;1.95;;;1.17;;
56523;SDS011;42422;47.540;18.712;2022-09-01T13:05:45;2.63;;;1.10;;
56523;SDS011;42422;47.540;18.712;2022-09-01T13:08:16;1.88;;;1.05;;
56523;SDS011;42422;47.540;18.712;2022-09-01T13:10:50;1.60;;;1.05;;
56523;SDS011;42422;47.540;18.712;2022-09-01T13:13:17;2.35;;;1.30;;
56523;SDS011;42422;47.540;18.712;2022-09-01T13:15:47;1.98;;;1.00;;
56523;SDS011;42422;47.540;18.712;2022-09-01T13:18:17;1.55;;;0.90;;
56523;SDS011;42422;47.540;18.712;2022-09-01T13:20:54;2.22;;;1.17;;
56523;SDS011;42422;47.540;18.712;2022-09-01T13:23:23;1.40;;;1.00;;
56523;SDS011;42422;47.540;18.712;2022-09-01T13:25:54;2.08;;;1.20;;
56523;SDS011;42422;47.540;18.712;2022-09-01T13:28:20;2.10;;;1.08;;
56523;SDS011;42422;47.540;18.712;2022-09-01T13:30:50;2.28;;;1.00;;
56523;SDS011;42422;47.540;18.712;2022-09-01T13:35:49;2.88;;;1.27;;
56523;SDS011;42422;47.540;18.712;2022-09-01T13:38:15;5.25;;;1.63;;
56523;SDS011;42422;47.540;18.712;2022-09-01T13:40:42;2.35;;;1.35;;
56523;SDS011;42422;47.540;18.712;2022-09-01T13:43:11;2.47;;;1.20;;
56523;SDS011;42422;47.540;18.712;2022-09-01T13:45:37;1.98;;;1.23;;
56523;SDS011;42422;47.540;18.712;2022-09-01T13:48:04;1.60;;;1.00;;
56523;SDS011;42422;47.540;18.712;2022-09-01T13:50:33;3.60;;;1.30;;
56523;SDS011;42422;47.540;18.712;2022-09-01T13:52:59;2.30;;;1.27;;
56523;SDS011;42422;47.540;18.712;2022-09-01T13:55:26;2.47;;;1.20;;
56523;SDS011;42422;47.540;18.712;2022-09-01T13:57:53;2.08;;;1.17;;
56523;SDS011;42422;47.540;18.712;2022-09-01T14:00:20;1.80;;;1.15;;
56523;SDS011;42422;47.540;18.712;2022-09-01T14:02:52;1.70;;;1.20;;
56523;SDS011;42422;47.540;18.712;2022-09-01T14:05:22;2.65;;;1.10;;
56523;SDS011;42422;47.540;18.712;2022-09-01T14:07:52;3.25;;;1.30;;
56523;SDS011;42422;47.540;18.712;2022-09-01T14:10:19;3.55;;;1.20;;
56523;SDS011;42422;47.540;18.712;2022-09-01T14:12:45;1.70;;;1.00;;
56523;SDS011;42422;47.540;18.712;2022-09-01T14:15:12;1.90;;;1.30;;
56523;SDS011;42422;47.540;18.712;2022-09-01T14:17:39;2.58;;;1.20;;
56523;SDS011;42422;47.540;18.712;2022-09-01T14:20:05;2.60;;;1.30;;
56523;SDS011;42422;47.540;18.712;2022-09-01T14:22:33;4.43;;;1.48;;
56523;SDS011;42422;47.540;18.712;2022-09-01T14:24:59;2.13;;;1.23;;
56523;SDS011;42422;47.540;18.712;2022-09-01T14:27:24;1.83;;;1.10;;
56523;SDS011;42422;47.540;18.712;2022-09-01T14:29:50;2.33;;;1.30;;
56523;SDS011;42422;47.540;18.712;2022-09-01T14:32:17;3.72;;;1.30;;
56523;SDS011;42422;47.540;18.712;2022-09-01T14:34:45;3.83;;;1.30;;
56523;SDS011;42422;47.540;18.712;2022-09-01T14:37:10;2.63;;;1.30;;
56523;SDS011;42422;47.540;18.712;2022-09-01T14:39:35;3.88;;;1.27;;
56523;SDS011;42422;47.540;18.712;2022-09-01T14:42:02;3.65;;;1.02;;
56523;SDS011;42422;47.540;18.712;2022-09-01T14:44:30;1.88;;;1.10;;
56523;SDS011;42422;47.540;18.712;2022-09-01T14:46:57;2.10;;;1.33;;
56523;SDS011;42422;47.540;18.712;2022-09-01T14:49:22;3.53;;;1.33;;
56523;SDS011;42422;47.540;18.712;2022-09-01T14:51:48;3.05;;;1.20;;
56523;SDS011;42422;47.540;18.712;2022-09-01T14:54:13;1.77;;;1.17;;
56523;SDS011;42422;47.540;18.712;2022-09-01T14:56:39;1.50;;;1.20;;
56523;SDS011;42422;47.540;18.712;2022-09-01T14:59:05;2.67;;;1.50;;
56523;SDS011;42422;47.540;18.712;2022-09-01T15:01:32;2.50;;;1.23;;
56523;SDS011;42422;47.540;18.712;2022-09-01T15:03:57;4.10;;;1.35;;
56523;SDS011;42422;47.540;18.712;2022-09-01T15:06:23;2.08;;;1.38;;
56523;SDS011;42422;47.540;18.712;2022-09-01T15:08:48;2.83;;;1.30;;
56523;SDS011;42422;47.540;18.712;2022-09-01T15:11:15;3.30;;;1.30;;
56523;SDS011;42422;47.540;18.712;2022-09-01T15:13:43;2.60;;;1.50;;
56523;SDS011;42422;47.540;18.712;2022-09-01T15:16:27;2.00;;;1.33;;
56523;SDS011;42422;47.540;18.712;2022-09-01T15:18:53;2.40;;;1.35;;
56523;SDS011;42422;47.540;18.712;2022-09-01T15:21:23;2.00;;;1.50;;
56523;SDS011;42422;47.540;18.712;2022-09-01T15:23:50;2.00;;;1.25;;
56523;SDS011;42422;47.540;18.712;2022-09-01T15:26:17;1.70;;;1.20;;
56523;SDS011;42422;47.540;18.712;2022-09-01T15:28:43;2.25;;;1.30;;
56523;SDS011;42422;47.540;18.712;2022-09-01T15:31:09;2.45;;;1.20;;
56523;SDS011;42422;47.540;18.712;2022-09-01T15:33:36;4.18;;;1.60;;
56523;SDS011;42422;47.540;18.712;2022-09-01T15:36:02;1.40;;;0.95;;
56523;SDS011;42422;47.540;18.712;2022-09-01T15:38:29;3.35;;;1.55;;
56523;SDS011;42422;47.540;18.712;2022-09-01T15:40:55;1.83;;;1.20;;
56523;SDS011;42422;47.540;18.712;2022-09-01T15:43:21;2.90;;;1.27;;
56523;SDS011;42422;47.540;18.712;2022-09-01T15:45:47;1.60;;;1.05;;
56523;SDS011;42422;47.540;18.712;2022-09-01T15:48:12;2.53;;;1.40;;
56523;SDS011;42422;47.540;18.712;2022-09-01T15:50:38;1.92;;;1.05;;
56523;SDS011;42422;47.540;18.712;2022-09-01T15:53:05;2.17;;;1.30;;